Terminal Aerodrome Forecast
Issued by NWS

Home | Current Version | Previous Version | Text Only | Print | Product List | Glossary On
Versions: 1 2 3 4 5 6 7 8 9 10 11 12 13 14 15 16 17 18 19 20 21 22 23 24
962
FTUS43 KDLH 241734
TAFHYR
TAF
KHYR 241734Z 2418/2518 25006KT P6SM SCT020 BKN040
     FM242100 VRB05KT P6SM SCT050
     FM250200 07006KT P6SM SCT012 SCT090
     FM250900 08010KT P6SM SCT022 BKN040
     FM251700 08011G17KT P6SM BKN022=

USA.gov is the U.S. government's official web portal to all federal, state and local government web resources and services.